This is the latest recevied weather packets stored in our database for station/object VA2CPJ. If no packets are shown the sender has not sent any weather packets the latest 10 day(s).
| Time | Temp. | Humidity | Pressure | Rain* | Wind** | Luminosity | Snow |
|---|---|---|---|---|---|---|---|
| 1778049351 | 11.11° C | 87% | 1015.7 hPa | - | - | 0 W/m² | - |
| 1778048722 | 11.11° C | 86% | 1015.4 hPa | - | - | 0 W/m² | - |
| 1778045125 | 12.22° C | 81% | 1015 hPa | - | - | 0 W/m² | - |
| 1778044819 | 12.22° C | 83% | 1014 hPa | - | - | 0 W/m² | - |
| 1778043620 | 11.67° C | 89% | 1014 hPa | - | - | 0 W/m² | - |
| 1778042430 | 11.67° C | 89% | 1013.7 hPa | - | - | 0 W/m² | - |
| 1778041835 | 11.67° C | 89% | 1013.7 hPa | - | - | 0 W/m² | - |
| 1778041231 | 11.67° C | 90% | 1013.7 hPa | - | - | 0 W/m² | - |
| 1778040960 | 11.67° C | 90% | 1014.3 hPa | - | - | 0 W/m² | - |
| 1778040321 | 11.67° C | 92% | 1014 hPa | - | - | 0 W/m² | - |
| 1778039420 | 11.67° C | 92% | 1013.3 hPa | - | - | 0 W/m² | - |
| 1778039140 | 12.22° C | 92% | 1014.3 hPa | - | - | 0 W/m² | - |
| 1778038518 | 12.22° C | 92% | 1014 hPa | - | - | 0 W/m² | - |
| 1778038230 | 12.22° C | 93% | 1013 hPa | - | - | 0 W/m² | - |
| 1778036761 | 12.78° C | 92% | 1013.3 hPa | - | - | 0 W/m² | - |
| 1778035546 | 13.33° C | 93% | 1013 hPa | - | - | 0 W/m² | - |
| 1778033767 | 12.78° C | 97% | 1012.3 hPa | - | - | 0 W/m² | - |
| 1778033732 | 12.78° C | 97% | 1012.6 hPa | - | - | 0 W/m² | - |
| 1778033455 | 12.78° C | 97% | 1011.6 hPa | - | - | 0 W/m² | - |
| 1778031941 | 13.33° C | 97% | 1013 hPa | - | - | 0 W/m² | - |
| 1778031624 | 13.33° C | 97% | 1011.9 hPa | - | - | 0 W/m² | - |
| 1778031361 | 13.33° C | 97% | 1012.6 hPa | - | - | 0 W/m² | - |
| 1778029830 | 13.33° C | 96% | 1011.3 hPa | - | - | 0 W/m² | - |
| 1778029042 | 13.33° C | 95% | 1012.3 hPa | - | - | 0 W/m² | - |
| 1778028076 | 13.89° C | 94% | 1010.9 hPa | - | - | 0 W/m² | - |
* Rain since midnight (hover to see other rain measurements)
** Current wind speed in m/s (hover to see current wind gust speed)